sensor_id;sensor_type;location;lat;lon;timestamp;pressure;altitude;pressure_sealevel;temperature;humidity
41140;BME280;26881;48.784;9.192;2024-01-06T00:00:26;97385.72;;;5.78;94.59
41140;BME280;26881;48.784;9.192;2024-01-06T00:05:48;97396.19;;;5.76;94.25
41140;BME280;26881;48.784;9.192;2024-01-06T00:11:10;97402.59;;;5.85;91.70
41140;BME280;26881;48.784;9.192;2024-01-06T00:16:32;97401.38;;;5.76;92.79
41140;BME280;26881;48.784;9.192;2024-01-06T00:21:54;97403.31;;;5.73;92.30
41140;BME280;26881;48.784;9.192;2024-01-06T00:27:16;97410.34;;;5.70;93.67
41140;BME280;26881;48.784;9.192;2024-01-06T00:32:38;97419.91;;;5.70;93.42
41140;BME280;26881;48.784;9.192;2024-01-06T00:38:00;97420.09;;;5.67;93.37
41140;BME280;26881;48.784;9.192;2024-01-06T00:43:22;97416.56;;;5.68;92.39
41140;BME280;26881;48.784;9.192;2024-01-06T00:48:44;97424.16;;;5.71;89.10
41140;BME280;26881;48.784;9.192;2024-01-06T00:54:06;97424.91;;;5.73;88.12
41140;BME280;26881;48.784;9.192;2024-01-06T00:59:28;97429.34;;;5.71;88.72
41140;BME280;26881;48.784;9.192;2024-01-06T01:04:49;97433.16;;;5.80;87.93
41140;BME280;26881;48.784;9.192;2024-01-06T01:10:11;97432.53;;;5.76;87.93
41140;BME280;26881;48.784;9.192;2024-01-06T01:15:33;97434.94;;;5.79;87.33
41140;BME280;26881;48.784;9.192;2024-01-06T01:20:56;97447.69;;;5.68;88.62
41140;BME280;26881;48.784;9.192;2024-01-06T01:26:18;97448.84;;;5.78;87.26
41140;BME280;26881;48.784;9.192;2024-01-06T01:31:40;97456.88;;;5.74;87.33
41140;BME280;26881;48.784;9.192;2024-01-06T01:37:02;97454.28;;;5.74;86.53
41140;BME280;26881;48.784;9.192;2024-01-06T01:42:24;97458.06;;;5.68;87.48
41140;BME280;26881;48.784;9.192;2024-01-06T01:47:46;97466.78;;;5.67;86.96
41140;BME280;26881;48.784;9.192;2024-01-06T01:53:08;97468.34;;;5.69;86.67
41140;BME280;26881;48.784;9.192;2024-01-06T01:58:30;97470.78;;;5.57;87.75
41140;BME280;26881;48.784;9.192;2024-01-06T02:03:52;97476.84;;;5.57;87.88
41140;BME280;26881;48.784;9.192;2024-01-06T02:09:14;97475.56;;;5.64;86.73
41140;BME280;26881;48.784;9.192;2024-01-06T02:14:36;97483.44;;;5.63;86.92
41140;BME280;26881;48.784;9.192;2024-01-06T02:19:58;97483.44;;;5.63;86.75
41140;BME280;26881;48.784;9.192;2024-01-06T02:25:20;97488.69;;;5.61;87.01
41140;BME280;26881;48.784;9.192;2024-01-06T02:30:42;97491.22;;;5.63;86.78
41140;BME280;26881;48.784;9.192;2024-01-06T02:36:05;97508.44;;;5.64;86.47
41140;BME280;26881;48.784;9.192;2024-01-06T02:41:26;97502.66;;;5.59;85.90
41140;BME280;26881;48.784;9.192;2024-01-06T02:46:48;97503.03;;;5.53;84.72
41140;BME280;26881;48.784;9.192;2024-01-06T02:52:11;97496.97;;;5.52;84.34
41140;BME280;26881;48.784;9.192;2024-01-06T02:57:33;97498.75;;;5.52;85.01
41140;BME280;26881;48.784;9.192;2024-01-06T03:02:55;97511.78;;;5.50;84.44
41140;BME280;26881;48.784;9.192;2024-01-06T03:08:17;97514.56;;;5.47;84.26
41140;BME280;26881;48.784;9.192;2024-01-06T03:13:39;97510.97;;;5.49;84.21
41140;BME280;26881;48.784;9.192;2024-01-06T03:19:01;97516.41;;;5.45;84.20
41140;BME280;26881;48.784;9.192;2024-01-06T03:24:24;97519.00;;;5.45;85.26
41140;BME280;26881;48.784;9.192;2024-01-06T03:29:46;97516.84;;;5.37;84.66
41140;BME280;26881;48.784;9.192;2024-01-06T03:35:08;97499.19;;;5.28;85.46
41140;BME280;26881;48.784;9.192;2024-01-06T03:40:30;97497.09;;;5.35;84.63
41140;BME280;26881;48.784;9.192;2024-01-06T03:45:52;97502.88;;;5.24;84.87
41140;BME280;26881;48.784;9.192;2024-01-06T03:51:14;97502.34;;;5.17;85.88
41140;BME280;26881;48.784;9.192;2024-01-06T03:56:36;97499.75;;;5.17;85.66
41140;BME280;26881;48.784;9.192;2024-01-06T04:01:57;97506.47;;;5.21;85.66
41140;BME280;26881;48.784;9.192;2024-01-06T04:07:19;97514.34;;;5.20;85.96
41140;BME280;26881;48.784;9.192;2024-01-06T04:12:41;97514.59;;;5.15;85.95
41140;BME280;26881;48.784;9.192;2024-01-06T04:18:04;97515.31;;;5.17;85.76
41140;BME280;26881;48.784;9.192;2024-01-06T04:23:26;97518.00;;;5.16;85.95
41140;BME280;26881;48.784;9.192;2024-01-06T04:28:48;97524.03;;;5.16;86.09
41140;BME280;26881;48.784;9.192;2024-01-06T04:34:10;97523.69;;;5.06;87.03
41140;BME280;26881;48.784;9.192;2024-01-06T04:39:32;97529.47;;;5.12;86.84
41140;BME280;26881;48.784;9.192;2024-01-06T04:44:58;97523.34;;;5.13;86.83
41140;BME280;26881;48.784;9.192;2024-01-06T04:50:20;97522.69;;;5.09;85.04
41140;BME280;26881;48.784;9.192;2024-01-06T04:55:42;97535.56;;;5.11;84.30
41140;BME280;26881;48.784;9.192;2024-01-06T05:01:03;97534.19;;;5.03;84.41
41140;BME280;26881;48.784;9.192;2024-01-06T05:06:26;97535.19;;;5.01;84.14
41140;BME280;26881;48.784;9.192;2024-01-06T05:11:48;97547.25;;;5.02;83.37
41140;BME280;26881;48.784;9.192;2024-01-06T05:17:09;97555.34;;;4.96;84.02
41140;BME280;26881;48.784;9.192;2024-01-06T05:22:31;97560.44;;;4.97;83.70
41140;BME280;26881;48.784;9.192;2024-01-06T05:27:53;97562.22;;;4.97;84.18
41140;BME280;26881;48.784;9.192;2024-01-06T05:33:16;97559.75;;;4.94;84.18
41140;BME280;26881;48.784;9.192;2024-01-06T05:38:38;97568.22;;;4.97;84.89
41140;BME280;26881;48.784;9.192;2024-01-06T05:44:00;97568.16;;;4.99;84.59
41140;BME280;26881;48.784;9.192;2024-01-06T05:49:21;97576.53;;;5.04;84.95
41140;BME280;26881;48.784;9.192;2024-01-06T05:54:43;97581.34;;;5.10;84.60
41140;BME280;26881;48.784;9.192;2024-01-06T06:00:09;97588.31;;;5.10;84.23
41140;BME280;26881;48.784;9.192;2024-01-06T06:05:32;97596.78;;;5.13;83.80
41140;BME280;26881;48.784;9.192;2024-01-06T06:10:54;97610.78;;;5.09;83.62
41140;BME280;26881;48.784;9.192;2024-01-06T06:16:32;97621.22;;;5.07;83.87
41140;BME280;26881;48.784;9.192;2024-01-06T06:21:54;97617.75;;;5.09;84.18
41140;BME280;26881;48.784;9.192;2024-01-06T06:27:16;97619.56;;;5.06;84.46
41140;BME280;26881;48.784;9.192;2024-01-06T06:32:38;97630.69;;;5.09;85.15
41140;BME280;26881;48.784;9.192;2024-01-06T06:38:00;97645.56;;;5.05;84.76
41140;BME280;26881;48.784;9.192;2024-01-06T06:43:21;97643.66;;;5.09;83.93
41140;BME280;26881;48.784;9.192;2024-01-06T06:48:43;97641.38;;;5.02;83.69
41140;BME280;26881;48.784;9.192;2024-01-06T06:54:05;97652.25;;;5.09;83.62
41140;BME280;26881;48.784;9.192;2024-01-06T06:59:28;97656.38;;;5.13;83.38
41140;BME280;26881;48.784;9.192;2024-01-06T07:04:50;97662.56;;;5.11;83.49
41140;BME280;26881;48.784;9.192;2024-01-06T07:10:12;97666.75;;;5.13;83.55
41140;BME280;26881;48.784;9.192;2024-01-06T07:15:34;97667.00;;;5.09;84.47
41140;BME280;26881;48.784;9.192;2024-01-06T07:20:56;97670.84;;;5.17;83.10
41140;BME280;26881;48.784;9.192;2024-01-06T07:26:18;97679.66;;;5.31;82.79
41140;BME280;26881;48.784;9.192;2024-01-06T07:31:40;97681.06;;;5.20;83.06
41140;BME280;26881;48.784;9.192;2024-01-06T07:37:02;97687.94;;;5.04;84.32
41140;BME280;26881;48.784;9.192;2024-01-06T07:42:24;97684.75;;;4.99;84.98
41140;BME280;26881;48.784;9.192;2024-01-06T07:47:46;97692.44;;;5.00;86.04
41140;BME280;26881;48.784;9.192;2024-01-06T07:53:08;97687.72;;;5.09;85.31
41140;BME280;26881;48.784;9.192;2024-01-06T07:58:30;97688.66;;;5.23;82.69
41140;BME280;26881;48.784;9.192;2024-01-06T08:03:52;97688.53;;;5.09;83.17
41140;BME280;26881;48.784;9.192;2024-01-06T08:09:14;97691.34;;;5.22;83.20
41140;BME280;26881;48.784;9.192;2024-01-06T08:14:36;97693.78;;;5.25;82.09
41140;BME280;26881;48.784;9.192;2024-01-06T08:19:58;97704.34;;;5.38;80.00
41140;BME280;26881;48.784;9.192;2024-01-06T08:25:20;97692.50;;;5.49;78.21
41140;BME280;26881;48.784;9.192;2024-01-06T08:30:41;97701.88;;;5.52;77.36
41140;BME280;26881;48.784;9.192;2024-01-06T08:36:05;97704.81;;;5.46;77.40
41140;BME280;26881;48.784;9.192;2024-01-06T08:41:27;97710.06;;;5.44;78.24
41140;BME280;26881;48.784;9.192;2024-01-06T08:46:49;97708.69;;;5.37;78.52
41140;BME280;26881;48.784;9.192;2024-01-06T08:52:11;97715.25;;;5.44;78.44
41140;BME280;26881;48.784;9.192;2024-01-06T08:57:33;97717.19;;;5.57;77.75
41140;BME280;26881;48.784;9.192;2024-01-06T09:02:55;97719.66;;;5.76;76.04
41140;BME280;26881;48.784;9.192;2024-01-06T09:08:17;97725.19;;;5.85;75.10
41140;BME280;26881;48.784;9.192;2024-01-06T09:13:39;97726.88;;;5.86;74.20
41140;BME280;26881;48.784;9.192;2024-01-06T09:19:01;97741.16;;;5.78;75.14
41140;BME280;26881;48.784;9.192;2024-01-06T09:24:23;97736.72;;;5.80;74.62
41140;BME280;26881;48.784;9.192;2024-01-06T09:29:45;97743.88;;;5.92;74.26
41140;BME280;26881;48.784;9.192;2024-01-06T09:35:07;97752.13;;;6.00;74.03
41140;BME280;26881;48.784;9.192;2024-01-06T09:40:31;97764.66;;;6.08;73.87
41140;BME280;26881;48.784;9.192;2024-01-06T09:46:01;97764.88;;;6.21;74.41
41140;BME280;26881;48.784;9.192;2024-01-06T09:51:24;97773.66;;;6.18;74.14
41140;BME280;26881;48.784;9.192;2024-01-06T09:56:48;97770.19;;;6.18;76.11
41140;BME280;26881;48.784;9.192;2024-01-06T10:02:14;97765.94;;;6.48;73.18
41140;BME280;26881;48.784;9.192;2024-01-06T10:07:36;97770.78;;;6.39;74.32
41140;BME280;26881;48.784;9.192;2024-01-06T10:12:58;97764.94;;;6.51;75.40
41140;BME280;26881;48.784;9.192;2024-01-06T10:18:20;97764.69;;;6.56;76.15
41140;BME280;26881;48.784;9.192;2024-01-06T10:23:42;97765.34;;;6.43;78.21
41140;BME280;26881;48.784;9.192;2024-01-06T10:29:04;97760.56;;;6.67;79.80
41140;BME280;26881;48.784;9.192;2024-01-06T10:34:26;97767.59;;;6.49;78.75
41140;BME280;26881;48.784;9.192;2024-01-06T10:40:06;97769.31;;;6.50;79.84
41140;BME280;26881;48.784;9.192;2024-01-06T10:45:28;97778.75;;;6.36;77.46
41140;BME280;26881;48.784;9.192;2024-01-06T10:50:52;97776.16;;;6.36;79.02
41140;BME280;26881;48.784;9.192;2024-01-06T10:56:15;97770.91;;;6.37;81.94
41140;BME280;26881;48.784;9.192;2024-01-06T11:01:37;97768.63;;;6.47;82.36
41140;BME280;26881;48.784;9.192;2024-01-06T11:07:00;97766.09;;;6.45;84.01
41140;BME280;26881;48.784;9.192;2024-01-06T11:12:22;97768.78;;;6.28;84.11
41140;BME280;26881;48.784;9.192;2024-01-06T11:23:21;97762.41;;;6.33;85.44
41140;BME280;26881;48.784;9.192;2024-01-06T11:28:44;97753.03;;;6.31;85.93
41140;BME280;26881;48.784;9.192;2024-01-06T11:34:15;97756.47;;;6.31;85.38
41140;BME280;26881;48.784;9.192;2024-01-06T11:39:41;97756.97;;;6.22;88.08
41140;BME280;26881;48.784;9.192;2024-01-06T11:45:04;97742.81;;;6.28;87.78
41140;BME280;26881;48.784;9.192;2024-01-06T11:50:27;97742.75;;;6.14;87.55
41140;BME280;26881;48.784;9.192;2024-01-06T11:55:49;97737.56;;;6.14;90.48
41140;BME280;26881;48.784;9.192;2024-01-06T12:01:11;97733.88;;;6.02;90.46
41140;BME280;26881;48.784;9.192;2024-01-06T12:06:34;97734.53;;;6.05;90.56
41140;BME280;26881;48.784;9.192;2024-01-06T12:12:03;97735.88;;;6.12;90.57
41140;BME280;26881;48.784;9.192;2024-01-06T12:17:30;97734.34;;;5.93;89.17
41140;BME280;26881;48.784;9.192;2024-01-06T12:22:53;97734.72;;;5.85;90.00
41140;BME280;26881;48.784;9.192;2024-01-06T12:28:15;97738.69;;;5.92;91.26
41140;BME280;26881;48.784;9.192;2024-01-06T12:33:38;97731.41;;;5.83;90.43
41140;BME280;26881;48.784;9.192;2024-01-06T12:39:03;97726.03;;;5.86;91.97
41140;BME280;26881;48.784;9.192;2024-01-06T12:44:25;97715.34;;;6.08;90.49
41140;BME280;26881;48.784;9.192;2024-01-06T12:49:46;97720.28;;;6.12;89.00
41140;BME280;26881;48.784;9.192;2024-01-06T12:55:08;97721.72;;;6.02;88.68
41140;BME280;26881;48.784;9.192;2024-01-06T13:00:31;97720.91;;;6.02;88.88
41140;BME280;26881;48.784;9.192;2024-01-06T13:05:57;97719.47;;;6.12;90.05
41140;BME280;26881;48.784;9.192;2024-01-06T13:11:20;97728.41;;;6.22;92.28
41140;BME280;26881;48.784;9.192;2024-01-06T13:16:42;97728.06;;;6.12;89.13
41140;BME280;26881;48.784;9.192;2024-01-06T13:22:04;97739.13;;;6.00;89.86
41140;BME280;26881;48.784;9.192;2024-01-06T13:27:26;97734.94;;;5.98;91.15
41140;BME280;26881;48.784;9.192;2024-01-06T13:32:54;97737.13;;;6.05;96.99
41140;BME280;26881;48.784;9.192;2024-01-06T13:38:16;97739.53;;;5.93;92.52
41140;BME280;26881;48.784;9.192;2024-01-06T13:43:38;97740.78;;;5.85;92.71
41140;BME280;26881;48.784;9.192;2024-01-06T13:48:59;97761.59;;;5.84;94.02
41140;BME280;26881;48.784;9.192;2024-01-06T13:54:22;97760.13;;;5.62;96.12
41140;BME280;26881;48.784;9.192;2024-01-06T13:59:43;97769.44;;;5.66;96.51
41140;BME280;26881;48.784;9.192;2024-01-06T14:05:06;97769.22;;;5.54;96.30
41140;BME280;26881;48.784;9.192;2024-01-06T14:10:30;97771.75;;;5.55;96.15
41140;BME280;26881;48.784;9.192;2024-01-06T14:15:53;97779.19;;;5.45;97.50
41140;BME280;26881;48.784;9.192;2024-01-06T14:21:15;97779.59;;;5.54;97.47
41140;BME280;26881;48.784;9.192;2024-01-06T14:26:41;97780.53;;;5.53;98.03
41140;BME280;26881;48.784;9.192;2024-01-06T14:32:04;97782.78;;;5.59;98.15
41140;BME280;26881;48.784;9.192;2024-01-06T14:37:26;97790.75;;;5.56;98.40
41140;BME280;26881;48.784;9.192;2024-01-06T14:42:48;97796.31;;;5.48;98.61
41140;BME280;26881;48.784;9.192;2024-01-06T14:48:10;97803.34;;;5.46;99.72
41140;BME280;26881;48.784;9.192;2024-01-06T14:53:32;97809.59;;;5.42;100.00
41140;BME280;26881;48.784;9.192;2024-01-06T14:58:56;97809.44;;;5.45;100.00
41140;BME280;26881;48.784;9.192;2024-01-06T15:04:18;97816.31;;;5.46;100.00
41140;BME280;26881;48.784;9.192;2024-01-06T15:09:42;97823.50;;;5.41;100.00
41140;BME280;26881;48.784;9.192;2024-01-06T15:15:04;97826.53;;;5.32;100.00
41140;BME280;26881;48.784;9.192;2024-01-06T15:20:27;97826.66;;;5.28;100.00
41140;BME280;26881;48.784;9.192;2024-01-06T15:25:49;97835.44;;;5.26;100.00
41140;BME280;26881;48.784;9.192;2024-01-06T15:31:11;97832.56;;;5.32;100.00
41140;BME280;26881;48.784;9.192;2024-01-06T15:36:33;97834.00;;;5.38;100.00
41140;BME280;26881;48.784;9.192;2024-01-06T15:41:55;97838.63;;;5.31;100.00
41140;BME280;26881;48.784;9.192;2024-01-06T15:47:17;97830.41;;;5.23;100.00
41140;BME280;26881;48.784;9.192;2024-01-06T15:52:39;97838.75;;;5.30;100.00
41140;BME280;26881;48.784;9.192;2024-01-06T15:58:01;97839.34;;;5.35;100.00
41140;BME280;26881;48.784;9.192;2024-01-06T16:03:23;97836.06;;;5.31;100.00
41140;BME280;26881;48.784;9.192;2024-01-06T16:08:45;97834.38;;;5.30;100.00
41140;BME280;26881;48.784;9.192;2024-01-06T16:14:07;97839.63;;;5.28;100.00
41140;BME280;26881;48.784;9.192;2024-01-06T16:19:29;97842.47;;;5.24;100.00
41140;BME280;26881;48.784;9.192;2024-01-06T16:24:51;97836.50;;;5.22;100.00
41140;BME280;26881;48.784;9.192;2024-01-06T16:30:14;97846.13;;;5.20;100.00
41140;BME280;26881;48.784;9.192;2024-01-06T16:35:36;97845.16;;;5.03;100.00
41140;BME280;26881;48.784;9.192;2024-01-06T16:40:59;97853.50;;;5.10;100.00
41140;BME280;26881;48.784;9.192;2024-01-06T16:46:21;97850.78;;;5.13;100.00
41140;BME280;26881;48.784;9.192;2024-01-06T16:51:43;97857.63;;;5.14;100.00
41140;BME280;26881;48.784;9.192;2024-01-06T16:57:05;97864.09;;;5.05;100.00
41140;BME280;26881;48.784;9.192;2024-01-06T17:02:26;97867.16;;;5.14;100.00
41140;BME280;26881;48.784;9.192;2024-01-06T17:07:49;97859.44;;;5.12;100.00
41140;BME280;26881;48.784;9.192;2024-01-06T17:13:11;97869.53;;;5.18;100.00
41140;BME280;26881;48.784;9.192;2024-01-06T17:18:33;97883.25;;;5.20;100.00
41140;BME280;26881;48.784;9.192;2024-01-06T17:23:55;97879.91;;;5.18;100.00
41140;BME280;26881;48.784;9.192;2024-01-06T17:29:17;97879.75;;;5.21;100.00
41140;BME280;26881;48.784;9.192;2024-01-06T17:34:39;97882.25;;;5.23;100.00
41140;BME280;26881;48.784;9.192;2024-01-06T17:40:01;97897.88;;;5.21;100.00
41140;BME280;26881;48.784;9.192;2024-01-06T17:45:23;97903.56;;;5.30;100.00
41140;BME280;26881;48.784;9.192;2024-01-06T17:50:46;97900.88;;;5.31;100.00
41140;BME280;26881;48.784;9.192;2024-01-06T17:56:09;97901.56;;;5.35;100.00
41140;BME280;26881;48.784;9.192;2024-01-06T18:01:30;97905.94;;;5.34;100.00
41140;BME280;26881;48.784;9.192;2024-01-06T18:06:53;97899.25;;;5.28;100.00
41140;BME280;26881;48.784;9.192;2024-01-06T18:12:15;97907.03;;;5.28;100.00
41140;BME280;26881;48.784;9.192;2024-01-06T18:17:36;97907.19;;;5.25;100.00
41140;BME280;26881;48.784;9.192;2024-01-06T18:23:00;97903.25;;;5.36;100.00
41140;BME280;26881;48.784;9.192;2024-01-06T18:28:22;97906.59;;;5.38;100.00
41140;BME280;26881;48.784;9.192;2024-01-06T18:33:45;97915.00;;;5.43;100.00
41140;BME280;26881;48.784;9.192;2024-01-06T18:39:07;97919.72;;;5.35;100.00
41140;BME280;26881;48.784;9.192;2024-01-06T18:44:29;97919.78;;;5.33;100.00
41140;BME280;26881;48.784;9.192;2024-01-06T18:49:51;97919.66;;;5.36;100.00
41140;BME280;26881;48.784;9.192;2024-01-06T18:55:14;97917.97;;;5.35;100.00
41140;BME280;26881;48.784;9.192;2024-01-06T19:00:36;97919.00;;;5.31;100.00
41140;BME280;26881;48.784;9.192;2024-01-06T19:05:58;97913.75;;;5.33;100.00
41140;BME280;26881;48.784;9.192;2024-01-06T19:11:20;97917.34;;;5.30;100.00
41140;BME280;26881;48.784;9.192;2024-01-06T19:16:42;97913.94;;;5.30;100.00
41140;BME280;26881;48.784;9.192;2024-01-06T19:22:05;97916.75;;;5.25;100.00
41140;BME280;26881;48.784;9.192;2024-01-06T19:27:27;97910.72;;;5.24;100.00
41140;BME280;26881;48.784;9.192;2024-01-06T19:32:50;97912.44;;;5.24;100.00
41140;BME280;26881;48.784;9.192;2024-01-06T19:38:13;97920.22;;;5.24;100.00
41140;BME280;26881;48.784;9.192;2024-01-06T19:43:41;97915.13;;;5.22;100.00
41140;BME280;26881;48.784;9.192;2024-01-06T19:49:03;97915.19;;;5.21;100.00
41140;BME280;26881;48.784;9.192;2024-01-06T19:54:25;97921.31;;;5.20;100.00
41140;BME280;26881;48.784;9.192;2024-01-06T19:59:47;97922.06;;;5.22;100.00
41140;BME280;26881;48.784;9.192;2024-01-06T20:05:11;97925.19;;;5.28;100.00
41140;BME280;26881;48.784;9.192;2024-01-06T20:10:33;97927.72;;;5.30;100.00
41140;BME280;26881;48.784;9.192;2024-01-06T20:15:58;97923.31;;;5.32;100.00
41140;BME280;26881;48.784;9.192;2024-01-06T20:21:21;97923.16;;;5.35;100.00
41140;BME280;26881;48.784;9.192;2024-01-06T20:26:43;97915.09;;;5.41;100.00
41140;BME280;26881;48.784;9.192;2024-01-06T20:32:06;97922.88;;;5.41;100.00
41140;BME280;26881;48.784;9.192;2024-01-06T20:37:28;97918.50;;;5.42;100.00
41140;BME280;26881;48.784;9.192;2024-01-06T20:42:50;97924.63;;;5.41;100.00
41140;BME280;26881;48.784;9.192;2024-01-06T20:48:12;97923.09;;;5.37;100.00
41140;BME280;26881;48.784;9.192;2024-01-06T20:53:34;97917.28;;;5.32;100.00
41140;BME280;26881;48.784;9.192;2024-01-06T20:58:57;97913.75;;;5.33;100.00
41140;BME280;26881;48.784;9.192;2024-01-06T21:04:19;97909.50;;;5.32;100.00
41140;BME280;26881;48.784;9.192;2024-01-06T21:09:41;97911.78;;;5.20;100.00
41140;BME280;26881;48.784;9.192;2024-01-06T21:15:03;97909.25;;;5.19;100.00
41140;BME280;26881;48.784;9.192;2024-01-06T21:20:25;97916.88;;;5.22;100.00
41140;BME280;26881;48.784;9.192;2024-01-06T21:25:47;97907.63;;;5.16;100.00
41140;BME280;26881;48.784;9.192;2024-01-06T21:31:09;97908.63;;;5.14;100.00
41140;BME280;26881;48.784;9.192;2024-01-06T21:36:31;97914.72;;;5.13;100.00
41140;BME280;26881;48.784;9.192;2024-01-06T21:41:53;97908.47;;;5.17;100.00
41140;BME280;26881;48.784;9.192;2024-01-06T21:47:15;97916.19;;;5.18;100.00
41140;BME280;26881;48.784;9.192;2024-01-06T21:52:37;97916.19;;;5.18;100.00
41140;BME280;26881;48.784;9.192;2024-01-06T21:58:01;97918.72;;;5.20;100.00
41140;BME280;26881;48.784;9.192;2024-01-06T22:03:24;97921.53;;;5.15;100.00
41140;BME280;26881;48.784;9.192;2024-01-06T22:08:46;97927.53;;;5.16;100.00
41140;BME280;26881;48.784;9.192;2024-01-06T22:14:08;97937.81;;;5.17;100.00
41140;BME280;26881;48.784;9.192;2024-01-06T22:19:30;97930.75;;;5.21;100.00
41140;BME280;26881;48.784;9.192;2024-01-06T22:24:52;97934.94;;;5.23;100.00
41140;BME280;26881;48.784;9.192;2024-01-06T22:30:14;97939.97;;;5.26;100.00
41140;BME280;26881;48.784;9.192;2024-01-06T22:35:38;97939.97;;;5.26;100.00
41140;BME280;26881;48.784;9.192;2024-01-06T22:41:00;97936.66;;;5.24;100.00
41140;BME280;26881;48.784;9.192;2024-01-06T22:46:22;97935.00;;;5.22;100.00
41140;BME280;26881;48.784;9.192;2024-01-06T22:51:47;97937.81;;;5.17;100.00
41140;BME280;26881;48.784;9.192;2024-01-06T22:57:09;97951.50;;;5.21;100.00
41140;BME280;26881;48.784;9.192;2024-01-06T23:02:31;97943.78;;;5.19;100.00
41140;BME280;26881;48.784;9.192;2024-01-06T23:07:53;97950.09;;;5.14;100.00
41140;BME280;26881;48.784;9.192;2024-01-06T23:13:15;97954.31;;;5.16;100.00
41140;BME280;26881;48.784;9.192;2024-01-06T23:18:38;97958.56;;;5.17;100.00
41140;BME280;26881;48.784;9.192;2024-01-06T23:24:00;97963.75;;;5.17;100.00
41140;BME280;26881;48.784;9.192;2024-01-06T23:29:22;97965.88;;;5.09;100.00
41140;BME280;26881;48.784;9.192;2024-01-06T23:34:44;97960.63;;;5.11;100.00
41140;BME280;26881;48.784;9.192;2024-01-06T23:40:07;97967.09;;;5.19;100.00
41140;BME280;26881;48.784;9.192;2024-01-06T23:45:29;97966.22;;;5.20;100.00
41140;BME280;26881;48.784;9.192;2024-01-06T23:50:51;97964.38;;;5.22;100.00
41140;BME280;26881;48.784;9.192;2024-01-06T23:56:13;97960.09;;;5.21;100.00
